KTHA/THA METAR and TAF weather

Enter ICAO airport designator
Station Type Date Time Source
KTHA METAR 2019/04/19 08:15 UTC NOAA

KTHA 190815Z AUTO 18007KT 10SM BKN008 OVC011 15/15 A2952 RMK A01


Station Type Date Time Source
KTHA Decoded METAR 2019/04/19 08:15 UTC NOAA

Station name not available
Apr 19, 2019 - 04:15 AM EDT / 2019.04.19 0815 UTC
Wind: from the S (180 degrees) at 8 MPH (7 KT):0
Visibility: 10 mile(s):0
Sky conditions: overcast
Temperature: 59 F (15 C)
Dew Point: 59 F (15 C)
Relative Humidity: 100%
Pressure (altimeter): 29.52 in. Hg (999 hPa)
ob: KTHA 190815Z AUTO 18007KT 10SM BKN008 OVC011 15/15 A2952 RMK A01
cycle: 8

Station Type Date Time Source
KTHA TAF UTC NOAA

Error!

Example: see airport list